sensor_id;sensor_type;location;lat;lon;timestamp;pressure;altitude;pressure_sealevel;temperature;humidity
35910;BME280;22004;49.120;-0.200;2023-04-09T00:02:08;102187.06;;;10.91;65.73
35910;BME280;22004;49.120;-0.200;2023-04-09T00:04:34;102183.03;;;11.04;65.07
35910;BME280;22004;49.120;-0.200;2023-04-09T00:06:59;102190.28;;;10.94;65.53
35910;BME280;22004;49.120;-0.200;2023-04-09T00:09:25;102188.44;;;10.95;65.21
35910;BME280;22004;49.120;-0.200;2023-04-09T00:11:50;102182.06;;;10.96;65.11
35910;BME280;22004;49.120;-0.200;2023-04-09T00:14:15;102181.06;;;10.97;65.39
35910;BME280;22004;49.120;-0.200;2023-04-09T00:16:41;102180.69;;;10.92;65.22
35910;BME280;22004;49.120;-0.200;2023-04-09T00:19:06;102171.53;;;10.84;65.35
35910;BME280;22004;49.120;-0.200;2023-04-09T00:21:31;102173.00;;;10.97;65.37
35910;BME280;22004;49.120;-0.200;2023-04-09T00:23:57;102175.09;;;11.03;65.28
35910;BME280;22004;49.120;-0.200;2023-04-09T00:26:22;102169.63;;;10.95;64.98
35910;BME280;22004;49.120;-0.200;2023-04-09T00:28:47;102168.63;;;10.96;65.09
35910;BME280;22004;49.120;-0.200;2023-04-09T00:31:13;102172.63;;;10.92;65.34
35910;BME280;22004;49.120;-0.200;2023-04-09T00:33:38;102176.03;;;10.84;65.33
35910;BME280;22004;49.120;-0.200;2023-04-09T00:36:03;102164.59;;;10.82;65.21
35910;BME280;22004;49.120;-0.200;2023-04-09T00:38:29;102155.09;;;10.87;65.39
35910;BME280;22004;49.120;-0.200;2023-04-09T00:40:55;102157.19;;;10.94;65.31
35910;BME280;22004;49.120;-0.200;2023-04-09T00:43:20;102149.47;;;10.81;65.26
35910;BME280;22004;49.120;-0.200;2023-04-09T00:45:46;102150.06;;;10.75;65.36
35910;BME280;22004;49.120;-0.200;2023-04-09T00:48:12;102144.94;;;10.81;65.53
35910;BME280;22004;49.120;-0.200;2023-04-09T00:50:38;102150.34;;;10.72;65.65
35910;BME280;22004;49.120;-0.200;2023-04-09T00:53:04;102148.94;;;10.68;65.72
35910;BME280;22004;49.120;-0.200;2023-04-09T00:55:30;102139.03;;;10.68;65.50
35910;BME280;22004;49.120;-0.200;2023-04-09T00:57:55;102132.28;;;10.64;65.67
35910;BME280;22004;49.120;-0.200;2023-04-09T01:00:21;102128.63;;;10.65;65.58
35910;BME280;22004;49.120;-0.200;2023-04-09T01:02:47;102126.78;;;10.66;65.65
35910;BME280;22004;49.120;-0.200;2023-04-09T01:05:14;102128.75;;;10.64;65.55
35910;BME280;22004;49.120;-0.200;2023-04-09T01:08:03;102132.88;;;10.58;65.49
35910;BME280;22004;49.120;-0.200;2023-04-09T01:15:53;102117.16;;;10.63;65.52
35910;BME280;22004;49.120;-0.200;2023-04-09T01:20:59;102116.31;;;10.63;65.90
35910;BME280;22004;49.120;-0.200;2023-04-09T01:27:04;102111.66;;;10.65;65.72
35910;BME280;22004;49.120;-0.200;2023-04-09T01:29:32;102111.53;;;10.56;65.36
35910;BME280;22004;49.120;-0.200;2023-04-09T01:31:59;102110.66;;;10.66;65.29
35910;BME280;22004;49.120;-0.200;2023-04-09T01:34:27;102115.94;;;10.48;66.46
35910;BME280;22004;49.120;-0.200;2023-04-09T01:36:55;102114.03;;;10.68;65.19
35910;BME280;22004;49.120;-0.200;2023-04-09T01:39:22;102118.34;;;10.78;65.12
35910;BME280;22004;49.120;-0.200;2023-04-09T01:41:49;102114.75;;;10.70;65.32
35910;BME280;22004;49.120;-0.200;2023-04-09T01:44:16;102111.94;;;10.61;65.07
35910;BME280;22004;49.120;-0.200;2023-04-09T01:46:42;102108.34;;;10.80;65.22
35910;BME280;22004;49.120;-0.200;2023-04-09T01:49:08;102100.63;;;10.58;65.44
35910;BME280;22004;49.120;-0.200;2023-04-09T01:51:35;102103.06;;;10.51;65.72
35910;BME280;22004;49.120;-0.200;2023-04-09T01:54:02;102090.31;;;10.63;65.40
35910;BME280;22004;49.120;-0.200;2023-04-09T01:56:27;102089.50;;;10.53;65.83
35910;BME280;22004;49.120;-0.200;2023-04-09T01:59:03;102088.97;;;10.49;65.64
35910;BME280;22004;49.120;-0.200;2023-04-09T02:01:38;102089.53;;;10.43;65.58
35910;BME280;22004;49.120;-0.200;2023-04-09T02:04:15;102083.06;;;10.36;66.15
35910;BME280;22004;49.120;-0.200;2023-04-09T02:06:56;102092.41;;;10.32;66.16
35910;BME280;22004;49.120;-0.200;2023-04-09T02:09:23;102095.94;;;10.32;66.07
35910;BME280;22004;49.120;-0.200;2023-04-09T02:11:52;102093.56;;;10.29;65.91
35910;BME280;22004;49.120;-0.200;2023-04-09T02:14:19;102087.19;;;10.30;66.10
35910;BME280;22004;49.120;-0.200;2023-04-09T02:16:44;102087.63;;;10.26;66.36
35910;BME280;22004;49.120;-0.200;2023-04-09T02:19:10;102091.00;;;10.28;66.13
35910;BME280;22004;49.120;-0.200;2023-04-09T02:21:35;102081.09;;;10.28;66.00
35910;BME280;22004;49.120;-0.200;2023-04-09T02:24:01;102087.03;;;10.22;65.88
35910;BME280;22004;49.120;-0.200;2023-04-09T02:26:26;102091.31;;;10.25;65.96
35910;BME280;22004;49.120;-0.200;2023-04-09T02:28:52;102087.31;;;10.19;66.12
35910;BME280;22004;49.120;-0.200;2023-04-09T02:31:17;102096.66;;;10.15;65.93
35910;BME280;22004;49.120;-0.200;2023-04-09T02:33:42;102095.09;;;10.13;66.36
35910;BME280;22004;49.120;-0.200;2023-04-09T02:36:11;102097.22;;;10.09;66.15
35910;BME280;22004;49.120;-0.200;2023-04-09T02:38:39;102090.88;;;10.20;66.16
35910;BME280;22004;49.120;-0.200;2023-04-09T02:41:05;102095.09;;;10.13;66.20
35910;BME280;22004;49.120;-0.200;2023-04-09T02:43:31;102086.63;;;10.17;65.84
35910;BME280;22004;49.120;-0.200;2023-04-09T02:45:56;102086.47;;;10.19;65.87
35910;BME280;22004;49.120;-0.200;2023-04-09T02:48:21;102082.94;;;10.18;65.49
35910;BME280;22004;49.120;-0.200;2023-04-09T02:50:47;102076.88;;;10.26;65.75
35910;BME280;22004;49.120;-0.200;2023-04-09T02:53:12;102076.88;;;10.16;65.64
35910;BME280;22004;49.120;-0.200;2023-04-09T02:55:37;102075.03;;;10.17;65.64
35910;BME280;22004;49.120;-0.200;2023-04-09T02:58:03;102067.00;;;10.17;65.44
35910;BME280;22004;49.120;-0.200;2023-04-09T03:00:28;102069.25;;;10.21;65.24
35910;BME280;22004;49.120;-0.200;2023-04-09T03:02:53;102074.34;;;10.15;65.10
35910;BME280;22004;49.120;-0.200;2023-04-09T03:05:19;102067.69;;;10.19;65.12
35910;BME280;22004;49.120;-0.200;2023-04-09T03:07:45;102066.31;;;10.05;65.62
35910;BME280;22004;49.120;-0.200;2023-04-09T03:10:11;102060.53;;;10.00;65.25
35910;BME280;22004;49.120;-0.200;2023-04-09T03:12:36;102058.72;;;10.00;65.25
35910;BME280;22004;49.120;-0.200;2023-04-09T03:15:02;102055.72;;;10.03;65.45
35910;BME280;22004;49.120;-0.200;2023-04-09T03:17:28;102050.06;;;10.06;65.29
35910;BME280;22004;49.120;-0.200;2023-04-09T03:19:56;102049.50;;;10.03;65.24
35910;BME280;22004;49.120;-0.200;2023-04-09T03:22:21;102054.47;;;9.98;65.19
35910;BME280;22004;49.120;-0.200;2023-04-09T03:24:47;102052.50;;;10.00;65.15
35910;BME280;22004;49.120;-0.200;2023-04-09T03:27:12;102056.56;;;10.04;64.99
35910;BME280;22004;49.120;-0.200;2023-04-09T03:29:37;102059.56;;;10.01;65.24
35910;BME280;22004;49.120;-0.200;2023-04-09T03:32:03;102059.38;;;10.12;64.94
35910;BME280;22004;49.120;-0.200;2023-04-09T03:34:28;102050.78;;;9.99;64.79
35910;BME280;22004;49.120;-0.200;2023-04-09T03:36:53;102044.56;;;9.98;65.51
35910;BME280;22004;49.120;-0.200;2023-04-09T03:39:19;102049.91;;;10.08;65.13
35910;BME280;22004;49.120;-0.200;2023-04-09T03:41:44;102051.88;;;10.16;64.64
35910;BME280;22004;49.120;-0.200;2023-04-09T03:44:09;102052.31;;;10.11;64.35
35910;BME280;22004;49.120;-0.200;2023-04-09T03:46:35;102059.09;;;10.25;64.18
35910;BME280;22004;49.120;-0.200;2023-04-09T03:49:00;102055.50;;;10.34;63.78
35910;BME280;22004;49.120;-0.200;2023-04-09T03:51:25;102057.78;;;10.29;64.13
35910;BME280;22004;49.120;-0.200;2023-04-09T03:53:51;102063.16;;;10.29;64.08
35910;BME280;22004;49.120;-0.200;2023-04-09T03:56:16;102053.56;;;10.26;63.85
35910;BME280;22004;49.120;-0.200;2023-04-09T03:58:42;102052.00;;;10.24;63.90
35910;BME280;22004;49.120;-0.200;2023-04-09T04:01:07;102056.09;;;10.28;63.97
35910;BME280;22004;49.120;-0.200;2023-04-09T04:03:32;102056.50;;;10.33;63.57
35910;BME280;22004;49.120;-0.200;2023-04-09T04:06:02;102063.28;;;10.37;63.56
35910;BME280;22004;49.120;-0.200;2023-04-09T04:08:28;102058.50;;;10.31;63.56
35910;BME280;22004;49.120;-0.200;2023-04-09T04:10:53;102057.34;;;10.33;63.66
35910;BME280;22004;49.120;-0.200;2023-04-09T04:13:19;102056.50;;;10.33;63.59
35910;BME280;22004;49.120;-0.200;2023-04-09T04:15:45;102052.97;;;10.32;63.28
35910;BME280;22004;49.120;-0.200;2023-04-09T04:18:10;102055.22;;;10.37;63.53
35910;BME280;22004;49.120;-0.200;2023-04-09T04:20:36;102058.09;;;10.26;63.64
35910;BME280;22004;49.120;-0.200;2023-04-09T04:23:02;102056.66;;;10.31;63.72
35910;BME280;22004;49.120;-0.200;2023-04-09T04:25:28;102067.25;;;10.23;63.63
35910;BME280;22004;49.120;-0.200;2023-04-09T04:27:53;102060.94;;;10.24;63.74
35910;BME280;22004;49.120;-0.200;2023-04-09T04:30:20;102066.72;;;10.10;64.30
35910;BME280;22004;49.120;-0.200;2023-04-09T04:32:46;102064.56;;;10.23;63.74
35910;BME280;22004;49.120;-0.200;2023-04-09T04:35:11;102063.66;;;9.95;64.45
35910;BME280;22004;49.120;-0.200;2023-04-09T04:37:36;102064.94;;;9.91;64.29
35910;BME280;22004;49.120;-0.200;2023-04-09T04:40:02;102057.88;;;10.00;64.38
35910;BME280;22004;49.120;-0.200;2023-04-09T04:42:29;102066.03;;;9.98;64.23
35910;BME280;22004;49.120;-0.200;2023-04-09T04:44:55;102057.66;;;10.21;63.58
35910;BME280;22004;49.120;-0.200;2023-04-09T04:47:20;102050.06;;;10.06;63.85
35910;BME280;22004;49.120;-0.200;2023-04-09T04:49:45;102055.03;;;10.01;63.80
35910;BME280;22004;49.120;-0.200;2023-04-09T04:52:11;102058.81;;;10.08;63.76
35910;BME280;22004;49.120;-0.200;2023-04-09T04:54:36;102056.50;;;10.23;63.80
35910;BME280;22004;49.120;-0.200;2023-04-09T04:57:02;102069.81;;;10.15;63.67
35910;BME280;22004;49.120;-0.200;2023-04-09T04:59:28;102067.16;;;10.25;63.58
35910;BME280;22004;49.120;-0.200;2023-04-09T05:01:53;102061.47;;;10.18;63.54
35910;BME280;22004;49.120;-0.200;2023-04-09T05:04:18;102067.00;;;10.07;64.03
35910;BME280;22004;49.120;-0.200;2023-04-09T05:06:44;102063.66;;;9.95;64.20
35910;BME280;22004;49.120;-0.200;2023-04-09T05:09:09;102067.28;;;10.04;64.01
35910;BME280;22004;49.120;-0.200;2023-04-09T05:11:35;102062.09;;;9.93;64.42
35910;BME280;22004;49.120;-0.200;2023-04-09T05:14:00;102064.91;;;10.01;64.13
35910;BME280;22004;49.120;-0.200;2023-04-09T05:16:25;102058.38;;;10.13;63.80
35910;BME280;22004;49.120;-0.200;2023-04-09T05:18:51;102054.00;;;10.12;64.19
35910;BME280;22004;49.120;-0.200;2023-04-09T05:21:16;102051.31;;;10.12;64.21
35910;BME280;22004;49.120;-0.200;2023-04-09T05:23:41;102055.31;;;9.98;63.79
35910;BME280;22004;49.120;-0.200;2023-04-09T05:26:07;102048.69;;;9.93;64.17
35910;BME280;22004;49.120;-0.200;2023-04-09T05:28:32;102056.00;;;10.10;64.09
35910;BME280;22004;49.120;-0.200;2023-04-09T05:30:57;102053.94;;;9.84;64.68
35910;BME280;22004;49.120;-0.200;2023-04-09T05:33:23;102057.75;;;9.82;64.31
35910;BME280;22004;49.120;-0.200;2023-04-09T05:35:49;102054.47;;;9.98;64.12
35910;BME280;22004;49.120;-0.200;2023-04-09T05:38:14;102060.56;;;9.80;64.50
35910;BME280;22004;49.120;-0.200;2023-04-09T05:40:39;102059.16;;;9.86;64.71
35910;BME280;22004;49.120;-0.200;2023-04-09T05:43:06;102062.69;;;9.77;64.65
35910;BME280;22004;49.120;-0.200;2023-04-09T05:45:31;102064.25;;;9.70;64.95
35910;BME280;22004;49.120;-0.200;2023-04-09T05:47:57;102064.63;;;9.94;64.48
35910;BME280;22004;49.120;-0.200;2023-04-09T05:50:22;102060.25;;;9.93;64.27
35910;BME280;22004;49.120;-0.200;2023-04-09T05:52:47;102057.88;;;10.00;64.37
35910;BME280;22004;49.120;-0.200;2023-04-09T05:55:13;102058.41;;;9.94;64.65
35910;BME280;22004;49.120;-0.200;2023-04-09T05:57:38;102061.13;;;9.84;64.44
35910;BME280;22004;49.120;-0.200;2023-04-09T06:00:04;102064.19;;;9.99;64.57
35910;BME280;22004;49.120;-0.200;2023-04-09T06:02:30;102057.91;;;9.80;65.13
35910;BME280;22004;49.120;-0.200;2023-04-09T06:04:55;102053.06;;;9.84;63.67
35910;BME280;22004;49.120;-0.200;2023-04-09T06:07:20;102053.19;;;9.92;64.73
35910;BME280;22004;49.120;-0.200;2023-04-09T06:09:46;102060.06;;;10.14;63.98
35910;BME280;22004;49.120;-0.200;2023-04-09T06:12:14;102065.88;;;10.09;64.14
35910;BME280;22004;49.120;-0.200;2023-04-09T06:14:40;102062.47;;;10.17;64.01
35910;BME280;22004;49.120;-0.200;2023-04-09T06:17:05;102057.94;;;10.18;63.76
35910;BME280;22004;49.120;-0.200;2023-04-09T06:19:30;102060.38;;;10.11;64.21
35910;BME280;22004;49.120;-0.200;2023-04-09T06:21:56;102053.41;;;10.28;63.34
35910;BME280;22004;49.120;-0.200;2023-04-09T06:24:21;102056.66;;;10.31;63.58
35910;BME280;22004;49.120;-0.200;2023-04-09T06:26:47;102057.44;;;9.95;63.89
35910;BME280;22004;49.120;-0.200;2023-04-09T06:29:12;102064.16;;;10.28;63.72
35910;BME280;22004;49.120;-0.200;2023-04-09T06:31:37;102071.22;;;10.29;63.74
35910;BME280;22004;49.120;-0.200;2023-04-09T06:34:02;102067.88;;;10.54;62.76
35910;BME280;22004;49.120;-0.200;2023-04-09T06:36:28;102058.19;;;10.71;62.51
35910;BME280;22004;49.120;-0.200;2023-04-09T06:38:54;102059.22;;;10.60;62.77
35910;BME280;22004;49.120;-0.200;2023-04-09T06:41:21;102053.25;;;10.67;62.91
35910;BME280;22004;49.120;-0.200;2023-04-09T06:43:46;102061.56;;;10.73;62.56
35910;BME280;22004;49.120;-0.200;2023-04-09T06:46:11;102056.44;;;10.80;62.50
35910;BME280;22004;49.120;-0.200;2023-04-09T06:48:38;102060.19;;;11.15;61.77
35910;BME280;22004;49.120;-0.200;2023-04-09T06:51:05;102063.00;;;11.67;60.18
35910;BME280;22004;49.120;-0.200;2023-04-09T06:53:31;102047.53;;;12.73;57.06
35910;BME280;22004;49.120;-0.200;2023-04-09T06:55:56;102049.25;;;13.65;54.39
35910;BME280;22004;49.120;-0.200;2023-04-09T06:58:22;102053.00;;;14.36;52.33
35910;BME280;22004;49.120;-0.200;2023-04-09T07:00:47;102052.19;;;14.83;51.25
35910;BME280;22004;49.120;-0.200;2023-04-09T07:03:13;102054.56;;;14.22;52.31
35910;BME280;22004;49.120;-0.200;2023-04-09T07:05:38;102055.50;;;14.45;52.40
35910;BME280;22004;49.120;-0.200;2023-04-09T07:08:04;102057.94;;;15.11;50.57
35910;BME280;22004;49.120;-0.200;2023-04-09T07:10:29;102060.81;;;16.16;48.17
35910;BME280;22004;49.120;-0.200;2023-04-09T07:12:55;102067.75;;;16.18;47.79
35910;BME280;22004;49.120;-0.200;2023-04-09T07:15:20;102061.63;;;14.31;52.66
35910;BME280;22004;49.120;-0.200;2023-04-09T07:17:46;102051.56;;;14.09;53.46
35910;BME280;22004;49.120;-0.200;2023-04-09T07:20:11;102045.91;;;14.35;52.84
35910;BME280;22004;49.120;-0.200;2023-04-09T07:22:36;102048.09;;;15.18;51.16
35910;BME280;22004;49.120;-0.200;2023-04-09T07:25:02;102039.56;;;15.29;52.02
35910;BME280;22004;49.120;-0.200;2023-04-09T07:27:28;102051.88;;;15.55;51.47
35910;BME280;22004;49.120;-0.200;2023-04-09T07:29:57;102053.44;;;13.92;56.91
35910;BME280;22004;49.120;-0.200;2023-04-09T07:32:23;102055.59;;;15.08;52.16
35910;BME280;22004;49.120;-0.200;2023-04-09T07:34:53;102055.69;;;15.68;50.52
35910;BME280;22004;49.120;-0.200;2023-04-09T07:37:19;102046.16;;;17.42;45.98
35910;BME280;22004;49.120;-0.200;2023-04-09T07:39:45;102058.16;;;15.32;52.05
35910;BME280;22004;49.120;-0.200;2023-04-09T07:42:10;102052.19;;;15.37;51.05
35910;BME280;22004;49.120;-0.200;2023-04-09T07:44:36;102050.22;;;15.76;50.24
35910;BME280;22004;49.120;-0.200;2023-04-09T07:47:02;102047.78;;;14.26;54.92
35910;BME280;22004;49.120;-0.200;2023-04-09T07:49:28;102046.44;;;14.30;54.53
35910;BME280;22004;49.120;-0.200;2023-04-09T07:51:55;102042.16;;;13.80;56.93
35910;BME280;22004;49.120;-0.200;2023-04-09T07:54:21;102050.34;;;15.06;54.42
35910;BME280;22004;49.120;-0.200;2023-04-09T07:56:47;102046.34;;;17.40;49.48
35910;BME280;22004;49.120;-0.200;2023-04-09T07:59:12;102040.63;;;15.89;52.25
35910;BME280;22004;49.120;-0.200;2023-04-09T08:01:40;102040.41;;;17.51;47.63
35910;BME280;22004;49.120;-0.200;2023-04-09T08:04:05;102034.97;;;16.28;50.40
35910;BME280;22004;49.120;-0.200;2023-04-09T08:06:31;102039.63;;;16.34;50.13
35910;BME280;22004;49.120;-0.200;2023-04-09T08:08:56;102042.88;;;16.89;51.50
35910;BME280;22004;49.120;-0.200;2023-04-09T08:11:22;102047.97;;;16.77;50.68
35910;BME280;22004;49.120;-0.200;2023-04-09T08:13:52;102050.94;;;16.52;49.59
35910;BME280;22004;49.120;-0.200;2023-04-09T08:16:18;102046.34;;;17.40;50.65
35910;BME280;22004;49.120;-0.200;2023-04-09T08:18:48;102051.97;;;17.17;49.63
35910;BME280;22004;49.120;-0.200;2023-04-09T08:21:14;102047.75;;;17.15;49.60
35910;BME280;22004;49.120;-0.200;2023-04-09T08:23:39;102048.84;;;16.69;49.46
35910;BME280;22004;49.120;-0.200;2023-04-09T08:26:05;102045.50;;;17.18;48.05
35910;BME280;22004;49.120;-0.200;2023-04-09T08:28:30;102049.91;;;16.39;49.58
35910;BME280;22004;49.120;-0.200;2023-04-09T08:30:56;102046.69;;;17.30;49.66
35910;BME280;22004;49.120;-0.200;2023-04-09T08:33:21;102045.75;;;17.02;48.71
35910;BME280;22004;49.120;-0.200;2023-04-09T08:35:46;102045.47;;;17.76;46.87
35910;BME280;22004;49.120;-0.200;2023-04-09T08:38:12;102045.03;;;18.00;48.15
35910;BME280;22004;49.120;-0.200;2023-04-09T08:40:37;102036.94;;;17.64;47.94
35910;BME280;22004;49.120;-0.200;2023-04-09T08:43:04;102029.25;;;17.68;46.81
35910;BME280;22004;49.120;-0.200;2023-04-09T08:45:31;102026.19;;;17.28;48.45
35910;BME280;22004;49.120;-0.200;2023-04-09T08:47:56;102028.53;;;18.08;46.65
35910;BME280;22004;49.120;-0.200;2023-04-09T08:50:27;102025.69;;;17.89;48.25
35910;BME280;22004;49.120;-0.200;2023-04-09T08:52:53;102022.44;;;18.34;48.76
35910;BME280;22004;49.120;-0.200;2023-04-09T08:55:20;102013.41;;;17.71;49.39
35910;BME280;22004;49.120;-0.200;2023-04-09T08:57:46;102022.13;;;17.17;48.02
35910;BME280;22004;49.120;-0.200;2023-04-09T09:00:11;102018.13;;;18.12;49.03
35910;BME280;22004;49.120;-0.200;2023-04-09T09:02:37;102014.75;;;17.75;46.92
35910;BME280;22004;49.120;-0.200;2023-04-09T09:05:03;102017.84;;;16.72;49.24
35910;BME280;22004;49.120;-0.200;2023-04-09T09:07:29;102017.72;;;17.38;48.66
35910;BME280;22004;49.120;-0.200;2023-04-09T09:10:00;102026.34;;;17.91;49.94
35910;BME280;22004;49.120;-0.200;2023-04-09T09:12:31;102024.19;;;18.14;48.97
35910;BME280;22004;49.120;-0.200;2023-04-09T09:14:56;102027.97;;;18.20;47.61
35910;BME280;22004;49.120;-0.200;2023-04-09T09:17:22;102010.59;;;18.14;48.62
35910;BME280;22004;49.120;-0.200;2023-04-09T09:19:47;102016.00;;;17.79;49.81
35910;BME280;22004;49.120;-0.200;2023-04-09T09:22:12;102018.13;;;17.84;48.58
35910;BME280;22004;49.120;-0.200;2023-04-09T09:24:49;102017.00;;;17.29;49.17
35910;BME280;22004;49.120;-0.200;2023-04-09T09:27:35;102009.69;;;17.29;48.62
35910;BME280;22004;49.120;-0.200;2023-04-09T09:30:02;102008.28;;;17.12;48.58
35910;BME280;22004;49.120;-0.200;2023-04-09T09:32:28;102006.09;;;17.93;49.88
35910;BME280;22004;49.120;-0.200;2023-04-09T09:35:04;102002.28;;;17.17;47.62
35910;BME280;22004;49.120;-0.200;2023-04-09T09:37:30;102002.19;;;17.10;50.00
35910;BME280;22004;49.120;-0.200;2023-04-09T09:39:57;101985.53;;;17.35;47.60
35910;BME280;22004;49.120;-0.200;2023-04-09T09:42:23;101990.66;;;17.23;48.78
35910;BME280;22004;49.120;-0.200;2023-04-09T09:44:49;101992.16;;;17.75;50.72
35910;BME280;22004;49.120;-0.200;2023-04-09T09:47:17;101996.03;;;17.66;49.09
35910;BME280;22004;49.120;-0.200;2023-04-09T09:49:42;101990.34;;;18.17;49.65
35910;BME280;22004;49.120;-0.200;2023-04-09T09:52:08;101989.81;;;17.72;48.71
35910;BME280;22004;49.120;-0.200;2023-04-09T09:54:47;101982.25;;;17.18;48.86
35910;BME280;22004;49.120;-0.200;2023-04-09T09:57:18;101977.28;;;17.71;49.25
35910;BME280;22004;49.120;-0.200;2023-04-09T09:59:49;101978.56;;;18.03;48.54
35910;BME280;22004;49.120;-0.200;2023-04-09T10:02:21;101981.03;;;17.98;49.22
35910;BME280;22004;49.120;-0.200;2023-04-09T10:04:48;101983.84;;;18.11;48.54
35910;BME280;22004;49.120;-0.200;2023-04-09T10:07:16;101983.41;;;18.07;48.72
35910;BME280;22004;49.120;-0.200;2023-04-09T10:09:48;101982.09;;;17.97;46.92
35910;BME280;22004;49.120;-0.200;2023-04-09T10:12:14;101979.84;;;18.07;47.94
35910;BME280;22004;49.120;-0.200;2023-04-09T10:14:41;101981.47;;;18.01;48.86
35910;BME280;22004;49.120;-0.200;2023-04-09T10:17:06;101978.94;;;17.72;47.87
35910;BME280;22004;49.120;-0.200;2023-04-09T10:19:40;101978.56;;;18.03;49.23
35910;BME280;22004;49.120;-0.200;2023-04-09T10:22:11;101991.63;;;17.65;49.34
35910;BME280;22004;49.120;-0.200;2023-04-09T10:24:37;101981.78;;;17.85;48.80
35910;BME280;22004;49.120;-0.200;2023-04-09T10:27:10;101980.94;;;17.85;47.92
35910;BME280;22004;49.120;-0.200;2023-04-09T10:29:42;101976.16;;;18.21;48.38
35910;BME280;22004;49.120;-0.200;2023-04-09T10:32:08;101972.50;;;18.01;47.83
35910;BME280;22004;49.120;-0.200;2023-04-09T10:34:38;101970.66;;;17.80;47.81
35910;BME280;22004;49.120;-0.200;2023-04-09T10:37:12;101962.22;;;17.19;49.17
35910;BME280;22004;49.120;-0.200;2023-04-09T10:39:40;101959.81;;;17.09;48.73
35910;BME280;22004;49.120;-0.200;2023-04-09T10:42:12;101957.75;;;17.82;48.14
35910;BME280;22004;49.120;-0.200;2023-04-09T10:44:39;101968.38;;;18.12;48.98
35910;BME280;22004;49.120;-0.200;2023-04-09T10:47:08;101958.41;;;17.63;48.63
35910;BME280;22004;49.120;-0.200;2023-04-09T10:49:39;101943.72;;;17.50;48.62
35910;BME280;22004;49.120;-0.200;2023-04-09T10:52:05;101941.13;;;17.98;49.95
35910;BME280;22004;49.120;-0.200;2023-04-09T10:59:34;101937.28;;;17.58;49.02
35910;BME280;22004;49.120;-0.200;2023-04-09T11:02:00;101935.78;;;17.77;49.41
35910;BME280;22004;49.120;-0.200;2023-04-09T11:04:47;101930.06;;;17.44;48.86
35910;BME280;22004;49.120;-0.200;2023-04-09T11:07:22;101927.94;;;17.67;48.00
35910;BME280;22004;49.120;-0.200;2023-04-09T11:09:48;101918.78;;;18.09;49.47
35910;BME280;22004;49.120;-0.200;2023-04-09T11:12:13;101929.34;;;18.26;47.42
35910;BME280;22004;49.120;-0.200;2023-04-09T11:14:38;101924.88;;;18.12;48.95
35910;BME280;22004;49.120;-0.200;2023-04-09T11:17:04;101923.69;;;18.21;47.25
35910;BME280;22004;49.120;-0.200;2023-04-09T11:19:32;101914.06;;;18.25;46.20
35910;BME280;22004;49.120;-0.200;2023-04-09T11:21:58;101911.34;;;17.27;47.69
35910;BME280;22004;49.120;-0.200;2023-04-09T11:24:23;101911.81;;;17.31;49.41
35910;BME280;22004;49.120;-0.200;2023-04-09T11:26:49;101907.78;;;17.55;47.28
35910;BME280;22004;49.120;-0.200;2023-04-09T11:29:15;101911.41;;;17.62;48.80
35910;BME280;22004;49.120;-0.200;2023-04-09T11:31:43;101917.47;;;17.92;47.99
35910;BME280;22004;49.120;-0.200;2023-04-09T11:34:09;101906.00;;;17.69;49.00
35910;BME280;22004;49.120;-0.200;2023-04-09T11:36:38;101898.81;;;17.54;48.02
35910;BME280;22004;49.120;-0.200;2023-04-09T11:39:03;101902.94;;;18.20;50.44
35910;BME280;22004;49.120;-0.200;2023-04-09T11:41:36;101898.31;;;18.07;46.31
35910;BME280;22004;49.120;-0.200;2023-04-09T11:44:04;101884.47;;;18.63;42.91
35910;BME280;22004;49.120;-0.200;2023-04-09T11:46:34;101885.03;;;17.84;43.81
35910;BME280;22004;49.120;-0.200;2023-04-09T11:49:00;101884.63;;;18.35;44.79
35910;BME280;22004;49.120;-0.200;2023-04-09T11:51:26;101888.59;;;18.32;44.65
35910;BME280;22004;49.120;-0.200;2023-04-09T11:53:53;101885.25;;;18.37;44.24
35910;BME280;22004;49.120;-0.200;2023-04-09T11:56:18;101879.97;;;17.46;44.55
35910;BME280;22004;49.120;-0.200;2023-04-09T11:58:47;101892.13;;;18.33;46.15
35910;BME280;22004;49.120;-0.200;2023-04-09T12:01:14;101875.66;;;18.48;44.22
35910;BME280;22004;49.120;-0.200;2023-04-09T12:03:39;101875.78;;;18.20;45.48
35910;BME280;22004;49.120;-0.200;2023-04-09T12:06:06;101869.19;;;17.94;45.30
35910;BME280;22004;49.120;-0.200;2023-04-09T12:08:35;101872.22;;;18.19;46.32
35910;BME280;22004;49.120;-0.200;2023-04-09T12:13:34;101856.41;;;18.49;45.35
35910;BME280;22004;49.120;-0.200;2023-04-09T12:16:00;101862.97;;;18.00;46.19
35910;BME280;22004;49.120;-0.200;2023-04-09T12:18:25;101865.34;;;18.23;45.37
35910;BME280;22004;49.120;-0.200;2023-04-09T12:20:51;101861.34;;;18.19;45.79
35910;BME280;22004;49.120;-0.200;2023-04-09T12:23:16;101857.56;;;18.75;46.53
35910;BME280;22004;49.120;-0.200;2023-04-09T12:25:43;101860.44;;;18.60;45.95
35910;BME280;22004;49.120;-0.200;2023-04-09T12:28:13;101849.19;;;18.90;47.08
35910;BME280;22004;49.120;-0.200;2023-04-09T12:30:40;101855.66;;;18.82;47.12
35910;BME280;22004;49.120;-0.200;2023-04-09T12:33:05;101850.22;;;18.75;46.31
35910;BME280;22004;49.120;-0.200;2023-04-09T12:35:31;101849.78;;;18.65;46.56
35910;BME280;22004;49.120;-0.200;2023-04-09T12:37:56;101846.19;;;18.51;45.85
35910;BME280;22004;49.120;-0.200;2023-04-09T12:40:23;101856.56;;;18.21;47.92
35910;BME280;22004;49.120;-0.200;2023-04-09T12:42:49;101849.75;;;18.45;46.01
35910;BME280;22004;49.120;-0.200;2023-04-09T12:45:16;101845.09;;;18.32;47.04
35910;BME280;22004;49.120;-0.200;2023-04-09T12:47:43;101847.72;;;19.14;47.34
35910;BME280;22004;49.120;-0.200;2023-04-09T12:50:09;101839.56;;;19.07;46.65
35910;BME280;22004;49.120;-0.200;2023-04-09T12:52:35;101848.19;;;18.23;47.46
35910;BME280;22004;49.120;-0.200;2023-04-09T12:55:02;101838.81;;;18.25;47.48
35910;BME280;22004;49.120;-0.200;2023-04-09T12:57:27;101838.88;;;18.52;47.88